WetterOnline ( https://www.wetteronline.de )

Wetter aktuell Hamburg

Aktuelles Wetter: Hamburg/Fuhlsbüttel (15m)

6-stündlich | Neueste Meldungen
Ortszeit Temperatur Wetter
Do, 02.12. 13:00 2.0° C wolkig
Do, 02.12. 7:00 1.3° C fast wolkenlos
Do, 02.12. 1:00 3.0° C bedeckt
Mi, 01.12. 19:00 6.2° C leichter Regen
Mi, 01.12. 13:00 8.7° C Sprühregen
Mi, 01.12. 7:00 6.0° C Sprühregen
Mi, 01.12. 1:00 3.7° C wolkig
Di, 30.11. 19:00 5.0° C fast wolkenlos
Ortszeit Temperatur Wetter
Do, 02.12. 14:20 2° C leicht bewölkt
Do, 02.12. 14:00 1.9° C wolkig
Do, 02.12. 13:50 1.9° C bedeckt
Do, 02.12. 13:40 1.9° C bedeckt
Do, 02.12. 13:30 1.7° C wolkig
Do, 02.12. 13:20 1.7° C wolkig
Do, 02.12. 13:00 2.0° C wolkig
Do, 02.12. 12:30 2.4° C bewölkt
Do, 02.12. 12:00 2.4° C fast wolkenlos
Do, 02.12. 11:30 2.0° C wolkenlos
Do, 02.12. 11:00 1.9° C fast wolkenlos
Ortszeit Relative Feuchte Sichtweite
Do, 02.12. 13:00 65% 50 km
Do, 02.12. 7:00 72% 45 km
Do, 02.12. 1:00 70% 35 km
Mi, 01.12. 19:00 80% 25 km
Mi, 01.12. 13:00 90% 25 km
Mi, 01.12. 7:00 99% 4.5 km
Mi, 01.12. 1:00 92% 25 km
Di, 30.11. 19:00 76% 35 km
Ortszeit Relative Feuchte Sichtweite
Do, 02.12. 14:20 69% >10 km
Do, 02.12. 14:00 68% 50 km
Do, 02.12. 13:50 68% -
Do, 02.12. 13:40 69% -
Do, 02.12. 13:30 68% 50 km
Do, 02.12. 13:20 68% -
Do, 02.12. 13:00 65% 50 km
Do, 02.12. 12:30 64% 40 km
Do, 02.12. 12:00 65% 50 km
Do, 02.12. 11:30 66% 40 km
Do, 02.12. 11:00 67% 50 km
Ortszeit Niederschlagsmenge Niederschlagsart
Do, 02.12. 13:00 0.0 l/m2 in 6 Std. -
Do, 02.12. 7:00 0.9 l/m2 in 12 Std. -
Do, 02.12. 1:00 0.9 l/m2 in 6 Std. Schnee, Regen
Mi, 01.12. 19:00 2 l/m2 in 12 Std. Regenschauer
Mi, 01.12. 13:00 0.4 l/m2 in 6 Std. Regen
Mi, 01.12. 7:00 6 l/m2 in 12 Std. Regen
Mi, 01.12. 1:00 0.0 l/m2 in 6 Std. -
Di, 30.11. 19:00 1 l/m2 in 12 Std. Schauer
Ortszeit Niederschlagsmenge Niederschlagsart
Do, 02.12. 14:20 keine Meldung -
Do, 02.12. 14:00 0.0 l/m2 in 1 Std. -
Do, 02.12. 13:50 keine Meldung -
Do, 02.12. 13:40 keine Meldung -
Do, 02.12. 13:30 0.0 l/m2 in 1 Std. -
Do, 02.12. 13:20 keine Meldung -
Do, 02.12. 13:00 0.0 l/m2 in 1 Std. -
Do, 02.12. 12:30 0.0 l/m2 in 1 Std. -
Do, 02.12. 12:00 0.0 l/m2 in 1 Std. -
Do, 02.12. 11:30 0.0 l/m2 in 1 Std. -
Do, 02.12. 11:00 0.0 l/m2 in 1 Std. -
Ortszeit Stärke Spitze Richtung
km/h Bft. km/h Grad Sektor
Do, 02.12. 13:00 20 4 37 310° NW
Do, 02.12. 7:00 25 4 65 290° W
Do, 02.12. 1:00 36 5 90 290° W
Mi, 01.12. 19:00 46 6 81 240° SW
Mi, 01.12. 13:00 37 5 63 210° SW
Mi, 01.12. 7:00 22 4 36 160° S
Mi, 01.12. 1:00 11 2 25 210° SW
Di, 30.11. 19:00 18 3 76 300° NW
Ortszeit Stärke Spitze Richtung
km/h Bft. km/h Grad Sektor
Do, 02.12. 14:20 19 3 - 320° NW
Do, 02.12. 14:00 14 3 29 310° NW
Do, 02.12. 13:50 14 3 - 310° NW
Do, 02.12. 13:40 14 3 - 310° NW
Do, 02.12. 13:30 17 3 28 310° NW
Do, 02.12. 13:20 17 3 - 310° NW
Do, 02.12. 13:00 20 4 31 310° NW
Do, 02.12. 12:30 20 4 31 310° NW
Do, 02.12. 12:00 18 3 32 310° NW
Do, 02.12. 11:30 20 4 31 300° NW
Do, 02.12. 11:00 19 3 28 300° NW
Ortszeit Untergrenze Bedeckung Gattung
total tief tief mittel hoch
Do, 02.12. 13:00 2400 m 7/8 3/8 - As Ci
Do, 02.12. 7:00 1200 m 1/8 1/8 Sc - -
Do, 02.12. 1:00 660 m 8/8 7/8 Cu - -
Mi, 01.12. 19:00 540 m 8/8 7/8 Sc - -
Mi, 01.12. 13:00 300 m 8/8 7/8 Sc - -
Mi, 01.12. 7:00 120 m 8/8 7/8 St - -
Mi, 01.12. 1:00 1050 m 8/8 3/8 Sc Ns -
Di, 30.11. 19:00 1500 m 1/8 1/8 Sc - -
Ortszeit Bedeckungsgrad in Achtel und Wolkenuntergrenze
Do, 02.12. 14:20 1-2(600m)
Do, 02.12. 14:00 1(600m) 7(3600m)
Do, 02.12. 13:50 5(3600m) 7(4500m) 8(5100m)
Do, 02.12. 13:40 3(3600m) 7(4500m) 8(5100m)
Do, 02.12. 13:30 1(3300m) 6(4500m) 6(5400m)
Do, 02.12. 13:20 1(3300m) 6(4500m) 6(5400m)
Do, 02.12. 13:00 2(2400m) 6(7500m)
Do, 02.12. 12:30 7(3000m) 7(3900m) 7(4200m)
Do, 02.12. 12:00 1(1800m)
Do, 02.12. 11:30 keine Wolken
Do, 02.12. 11:00 1(1800m)
Ortszeit Luftdruck NN (hPa) Tendenz (hPa in 3 Std.)
Do, 02.12. 13:00 999 + 2,2
Do, 02.12. 7:00 994 + 2,4
Do, 02.12. 1:00 988 + 5,3
Mi, 01.12. 19:00 978 - 1,1
Mi, 01.12. 13:00 982 - 4,2
Mi, 01.12. 7:00 990 - 6,0
Mi, 01.12. 1:00 1001 - 1,4
Di, 30.11. 19:00 1001 + 2,8
Ortszeit Luftdruck NN (hPa) Tendenz (hPa in 3 Std.)
Do, 02.12. 14:20 1000 keine Meldung
Do, 02.12. 14:00 1000 + 2,1
Do, 02.12. 13:50 1000 keine Meldung
Do, 02.12. 13:40 1000 keine Meldung
Do, 02.12. 13:30 1000 + 2,1
Do, 02.12. 13:20 1000 keine Meldung
Do, 02.12. 13:00 999 + 2,2
Do, 02.12. 12:30 999 + 2,3
Do, 02.12. 12:00 999 + 2,5
Do, 02.12. 11:30 998 + 2,6
Do, 02.12. 11:00 998 + 2,8
Ortszeit Schneehöhe (cm)
Do, 02.12. 13:00 0
Do, 02.12. 7:00 0
Do, 02.12. 1:00 0
Mi, 01.12. 19:00 0
Mi, 01.12. 13:00 0
Mi, 01.12. 7:00 0
Mi, 01.12. 1:00 0
Di, 30.11. 19:00 0
Ortszeit Schneehöhe (cm)
Do, 02.12. 14:20 -
Do, 02.12. 14:00 0
Do, 02.12. 13:50 0
Do, 02.12. 13:40 0
Do, 02.12. 13:30 0
Do, 02.12. 13:20 0
Do, 02.12. 13:00 0
Do, 02.12. 12:30 0
Do, 02.12. 12:00 0
Do, 02.12. 11:30 0
Do, 02.12. 11:00 0
Link zu dieser Seite / Seite empfehlen

Das Wetter in ...